Equality, Alabama
Current Conditions -  °F | °C
As of 9:15 PM on Wednesday 22 Oct 2014 (Local Time) from KALX Reporting Station
Clear Clear  
Wind Chill: 13°   Ceiling: Unl
Heat Index: 13°   Visibility: 10mi
Dew Point:   Wind: 5mph
Humidity: 67%   Direction: 10°N
Pressure: 30.13"   Gusts: NA
Location:  32.76°N, 86.1°W
Report Text: KALX 230215Z AUTO 01004KT 10SM CLR 13/07 A3013 RMK AO2 T01330072
Loading
Personal Weather Stations






























Interactive Weather Map
Tropical Storm Tracking
New forecast layout! Learn more

10-Day Weather Forecast

Advertisements
Track Severe Weather on mobile